Time;durP1;ratioP1;P1;durP2;ratioP2;P2;SDS_P1;SDS_P2;PMS_P1;PMS_P2;Temp;Humidity;BMP_temperature;BMP_pressure;BME280_temperature;BME280_humidity;BME280_pressure;Samples;Min_cycle;Max_cycle;Signal;HPM_P1;HPM_P2
2022/01/27 00:02:09;;;;;;;5.13;3.10;;;-4.40;99.90;;;;;;5053152;28;20101;-75
2022/01/27 00:04:42;;;;;;;10.40;3.70;;;-4.40;99.90;;;;;;5065010;28;20048;-75
2022/01/27 00:07:09;;;;;;;8.65;3.97;;;-4.40;99.90;;;;;;5061146;28;20418;-75
2022/01/27 00:09:47;;;;;;;7.10;3.67;;;-4.40;99.90;;;;;;5051996;28;20055;-76
2022/01/27 00:12:17;;;;;;;3.67;2.78;;;-4.40;99.90;;;;;;5057099;28;20063;-75
2022/01/27 00:14:52;;;;;;;8.07;3.78;;;-4.40;99.90;;;;;;5050772;28;20107;-75
2022/01/27 00:17:28;;;;;;;7.22;3.35;;;-4.40;99.90;;;;;;5058820;28;20132;-75
2022/01/27 00:19:55;;;;;;;7.32;3.95;;;-4.40;99.90;;;;;;5052949;28;20079;-76
2022/01/27 00:22:27;;;;;;;6.50;3.40;;;-4.40;99.90;;;;;;5056545;28;20047;-75
2022/01/27 00:24:56;;;;;;;6.25;3.42;;;-4.40;99.90;;;;;;5045801;28;20056;-76
2022/01/27 00:27:23;;;;;;;6.15;3.90;;;-4.40;99.90;;;;;;5035114;28;20037;-76
2022/01/27 00:29:51;;;;;;;5.68;3.70;;;-4.40;99.90;;;;;;5058157;28;20502;-75
2022/01/27 00:32:18;;;;;;;5.03;4.47;;;-4.40;99.90;;;;;;5057786;28;20044;-75
2022/01/27 00:34:46;;;;;;;6.55;4.82;;;-4.50;99.90;;;;;;5064238;28;20545;-74
2022/01/27 00:37:13;;;;;;;9.50;4.65;;;-4.50;99.90;;;;;;5057457;28;20402;-74
2022/01/27 00:39:40;;;;;;;7.30;4.88;;;-4.50;99.90;;;;;;5063585;28;20108;-77
2022/01/27 00:42:09;;;;;;;5.88;3.72;;;-4.60;99.90;;;;;;5049704;28;20134;-74
2022/01/27 00:44:37;;;;;;;10.18;3.80;;;-4.50;99.90;;;;;;5056545;28;20051;-74
2022/01/27 00:47:05;;;;;;;8.77;3.55;;;-4.50;99.90;;;;;;5045291;28;20060;-77
2022/01/27 00:49:33;;;;;;;8.18;3.60;;;-4.50;99.90;;;;;;5032494;28;20264;-78
2022/01/27 00:52:03;;;;;;;11.60;4.28;;;-4.40;99.90;;;;;;5044770;28;20490;-79
2022/01/27 00:54:31;;;;;;;9.50;3.97;;;-4.40;99.90;;;;;;5035309;28;20573;-78
2022/01/27 00:57:06;;;;;;;10.55;4.40;;;-4.40;99.90;;;;;;5046375;28;20049;-78
2022/01/27 00:59:43;;;;;;;5.25;3.55;;;-4.40;99.90;;;;;;5026208;28;20510;-78
2022/01/27 01:02:17;;;;;;;6.88;3.92;;;-4.40;99.90;;;;;;5033943;28;20049;-78
2022/01/27 01:04:50;;;;;;;6.60;3.30;;;-4.40;99.90;;;;;;5024956;28;20175;-77
2022/01/27 01:07:19;;;;;;;9.27;4.35;;;-4.30;99.90;;;;;;5033007;28;20576;-77
2022/01/27 01:15:34;;;;;;;4.55;2.67;;;-4.30;99.90;;;;;;4993649;28;20072;-78
2022/01/27 01:18:16;;;;;;;4.97;2.05;;;-4.30;99.90;;;;;;5031480;28;20041;-79
2022/01/27 01:21:00;;;;;;;8.35;2.97;;;-4.20;99.90;;;;;;5033063;28;20046;-78
2022/01/27 01:31:52;;;;;;;3.83;2.53;;;-4.30;99.90;;;;;;5038929;28;20425;-78
2022/01/27 01:34:23;;;;;;;6.15;2.75;;;-4.30;99.90;;;;;;5038798;28;20521;-79
2022/01/27 01:36:57;;;;;;;5.82;2.13;;;-4.20;99.90;;;;;;5041033;28;20159;-79
2022/01/27 01:39:27;;;;;;;9.32;3.13;;;-4.20;99.90;;;;;;5036563;28;20119;-79
2022/01/27 01:41:55;;;;;;;6.15;2.42;;;-4.20;99.90;;;;;;5039415;28;20573;-78
2022/01/27 01:44:23;;;;;;;3.53;1.95;;;-4.30;99.90;;;;;;5056835;28;20153;-79
2022/01/27 01:46:52;;;;;;;6.03;2.30;;;-4.30;99.90;;;;;;5041832;28;20053;-79
2022/01/27 01:49:22;;;;;;;4.32;2.30;;;-4.30;99.90;;;;;;5038003;28;20056;-77
2022/01/27 01:51:50;;;;;;;4.25;2.25;;;-4.30;99.90;;;;;;5042475;28;20445;-79
2022/01/27 01:54:18;;;;;;;4.80;2.63;;;-4.20;99.90;;;;;;5035933;28;20053;-77
2022/01/27 01:56:45;;;;;;;4.03;2.58;;;-4.20;99.90;;;;;;5036119;28;20140;-77
2022/01/27 01:59:14;;;;;;;5.00;1.90;;;-4.20;99.90;;;;;;5038359;28;20049;-78
2022/01/27 02:01:42;;;;;;;3.83;2.35;;;-4.20;99.90;;;;;;5050416;28;20342;-78
2022/01/27 02:04:12;;;;;;;1.73;1.55;;;-4.20;99.90;;;;;;5033471;28;20049;-78
2022/01/27 02:06:46;;;;;;;3.58;1.88;;;-4.20;99.90;;;;;;5050406;28;20049;-79
2022/01/27 02:09:24;;;;;;;5.03;2.53;;;-4.20;99.90;;;;;;5043750;28;20371;-79
2022/01/27 02:20:11;;;;;;;5.00;2.00;;;-4.30;99.90;;;;;;5044349;28;20067;-79
2022/01/27 02:22:40;;;;;;;2.92;1.90;;;-4.30;99.90;;;;;;5044324;28;20494;-78
2022/01/27 02:25:09;;;;;;;7.28;2.80;;;-4.20;99.90;;;;;;5038379;28;20045;-79
2022/01/27 02:27:38;;;;;;;2.85;1.60;;;-4.30;99.90;;;;;;5044728;28;20061;-79
2022/01/27 02:30:07;;;;;;;7.72;2.58;;;-4.30;99.90;;;;;;5039803;28;20057;-79
2022/01/27 02:32:35;;;;;;;4.68;2.20;;;-4.20;99.90;;;;;;5045895;28;20204;-79
2022/01/27 02:35:02;;;;;;;3.00;2.20;;;-4.20;99.90;;;;;;5038901;28;20055;-78
2022/01/27 02:37:32;;;;;;;7.82;2.40;;;-4.20;99.90;;;;;;5035561;28;20069;-79
2022/01/27 02:39:59;;;;;;;5.22;2.40;;;-4.20;99.90;;;;;;5036719;28;20425;-78
2022/01/27 02:42:31;;;;;;;7.68;2.20;;;-4.20;99.90;;;;;;5047483;28;20404;-79
2022/01/27 02:45:09;;;;;;;11.47;2.60;;;-4.20;99.90;;;;;;5045464;28;20072;-79
2022/01/27 02:47:37;;;;;;;3.22;2.33;;;-4.20;99.90;;;;;;5036511;28;20088;-78
2022/01/27 02:50:07;;;;;;;9.60;2.45;;;-4.20;99.90;;;;;;5039801;28;20143;-78
2022/01/27 02:52:36;;;;;;;5.55;2.30;;;-4.20;99.90;;;;;;5035231;28;20054;-80
2022/01/27 02:55:04;;;;;;;7.75;2.97;;;-4.20;99.90;;;;;;5013277;28;20399;-78
2022/01/27 02:57:32;;;;;;;10.10;2.75;;;-4.20;99.90;;;;;;5046956;28;20056;-78
2022/01/27 02:59:59;;;;;;;4.28;3.53;;;-4.20;99.90;;;;;;5054929;28;20055;-78
2022/01/27 03:02:27;;;;;;;5.97;2.03;;;-4.20;99.90;;;;;;5031245;28;20057;-79
2022/01/27 03:04:54;;;;;;;5.25;2.42;;;-4.20;99.90;;;;;;5014008;28;20063;-77
2022/01/27 03:07:21;;;;;;;4.43;2.20;;;-4.20;99.90;;;;;;5032580;28;20506;-78
2022/01/27 03:09:50;;;;;;;3.90;2.60;;;-4.20;99.90;;;;;;5048181;28;20068;-78
2022/01/27 03:12:18;;;;;;;4.43;2.20;;;-4.20;99.90;;;;;;5030781;28;20049;-78
2022/01/27 03:14:46;;;;;;;3.67;1.92;;;-4.20;99.90;;;;;;5035602;28;20053;-78
2022/01/27 03:17:13;;;;;;;7.03;3.15;;;-4.20;99.90;;;;;;5029822;28;20053;-78
2022/01/27 03:19:40;;;;;;;4.10;2.88;;;-4.20;99.90;;;;;;5030357;28;20053;-78
2022/01/27 03:22:09;;;;;;;4.93;2.28;;;-4.20;99.90;;;;;;5030684;28;20462;-79
2022/01/27 03:24:37;;;;;;;4.30;2.15;;;-4.20;99.90;;;;;;5046210;28;20052;-79
2022/01/27 03:27:14;;;;;;;7.07;2.40;;;-4.20;99.90;;;;;;5043534;28;20045;-79
2022/01/27 03:29:41;;;;;;;5.40;2.75;;;-4.20;99.90;;;;;;5031301;28;20513;-79
2022/01/27 03:32:09;;;;;;;6.55;3.10;;;-4.20;99.90;;;;;;5027056;28;20029;-80
2022/01/27 03:34:37;;;;;;;4.07;2.50;;;-4.10;99.90;;;;;;5034864;28;20469;-79
2022/01/27 03:37:12;;;;;;;3.25;2.63;;;-4.10;99.90;;;;;;5035391;28;20144;-79
2022/01/27 03:39:42;;;;;;;4.65;2.47;;;-4.10;99.90;;;;;;5040589;28;20044;-78
2022/01/27 03:42:11;;;;;;;5.07;3.20;;;-4.10;99.90;;;;;;5039724;28;20164;-79
2022/01/27 03:44:39;;;;;;;6.38;2.70;;;-4.10;99.90;;;;;;5047031;28;20144;-78
2022/01/27 03:47:08;;;;;;;5.43;3.13;;;-4.20;99.90;;;;;;5031220;28;20501;-75
2022/01/27 03:49:35;;;;;;;10.35;3.10;;;-4.20;99.90;;;;;;5046459;28;20447;-75
2022/01/27 03:52:04;;;;;;;5.22;3.42;;;-4.20;99.90;;;;;;5014660;28;20053;-75
2022/01/27 03:54:32;;;;;;;5.28;3.28;;;-4.10;99.90;;;;;;5028902;28;20045;-75
2022/01/27 03:57:00;;;;;;;3.55;2.58;;;-4.10;99.90;;;;;;5022946;28;20053;-76
2022/01/27 03:59:30;;;;;;;9.07;3.33;;;-4.10;99.90;;;;;;5030917;28;20413;-75
2022/01/27 04:01:58;;;;;;;5.05;3.25;;;-4.10;99.90;;;;;;5048738;28;20514;-75
2022/01/27 04:04:26;;;;;;;4.45;3.10;;;-4.20;99.90;;;;;;5039455;28;20053;-75
2022/01/27 04:06:54;;;;;;;3.80;2.83;;;-4.20;99.90;;;;;;5039518;28;20056;-76
2022/01/27 04:09:22;;;;;;;7.00;3.28;;;-4.20;99.90;;;;;;5038149;28;20049;-75
2022/01/27 04:11:50;;;;;;;4.72;2.50;;;-4.20;99.90;;;;;;5043258;28;20119;-77
2022/01/27 04:14:17;;;;;;;5.63;2.92;;;-4.20;99.90;;;;;;5037239;28;20409;-77
2022/01/27 04:16:46;;;;;;;5.95;2.70;;;-4.10;99.90;;;;;;5036447;28;20103;-77
2022/01/27 04:19:13;;;;;;;4.32;2.45;;;-4.10;99.90;;;;;;5048986;28;20049;-84
2022/01/27 04:21:41;;;;;;;4.85;2.58;;;-4.10;99.90;;;;;;5048707;28;20052;-83
2022/01/27 04:24:11;;;;;;;5.28;2.80;;;-4.10;99.90;;;;;;5047511;28;20144;-84
2022/01/27 04:26:43;;;;;;;4.65;3.03;;;-4.20;99.90;;;;;;5042401;28;20493;-82
2022/01/27 04:29:11;;;;;;;5.25;2.80;;;-4.20;99.90;;;;;;5038788;28;20053;-83
2022/01/27 04:31:41;;;;;;;6.68;2.90;;;-4.30;99.90;;;;;;5044333;28;20038;-83
2022/01/27 04:34:12;;;;;;;5.22;2.70;;;-4.20;99.90;;;;;;5046342;28;20072;-82
2022/01/27 04:36:40;;;;;;;8.02;3.63;;;-4.20;99.90;;;;;;5032389;28;20147;-83
2022/01/27 04:39:14;;;;;;;11.27;4.10;;;-4.20;99.90;;;;;;5042092;28;20044;-86
2022/01/27 04:41:50;;;;;;;3.53;2.42;;;-4.20;99.90;;;;;;5050889;28;20053;-83
2022/01/27 04:44:25;;;;;;;3.88;3.03;;;-4.20;99.90;;;;;;5052674;28;20049;-82
2022/01/27 04:46:58;;;;;;;6.05;3.35;;;-4.20;99.90;;;;;;5047796;28;20064;-82
2022/01/27 04:49:27;;;;;;;6.20;2.78;;;-4.20;99.90;;;;;;5031378;28;20045;-81
2022/01/27 04:51:54;;;;;;;4.05;2.72;;;-4.10;99.90;;;;;;5047338;28;20083;-82
2022/01/27 04:54:26;;;;;;;5.10;2.25;;;-4.10;99.90;;;;;;5053405;28;20064;-83
2022/01/27 04:57:00;;;;;;;4.25;2.75;;;-4.10;99.90;;;;;;5041900;28;20567;-77
2022/01/27 04:59:32;;;;;;;7.63;3.80;;;-4.10;99.90;;;;;;5035325;28;20187;-79
2022/01/27 05:02:04;;;;;;;10.73;4.13;;;-4.10;99.90;;;;;;5031688;28;20388;-79
2022/01/27 05:04:35;;;;;;;6.68;2.42;;;-4.10;99.90;;;;;;5046785;28;20449;-81
2022/01/27 05:07:03;;;;;;;6.65;2.50;;;-4.10;99.90;;;;;;5034101;28;20057;-80
2022/01/27 05:09:31;;;;;;;5.38;2.58;;;-4.10;99.90;;;;;;5040078;28;20107;-77
2022/01/27 05:12:09;;;;;;;4.63;2.97;;;-4.10;99.90;;;;;;5040474;28;20095;-77
2022/01/27 05:14:36;;;;;;;4.00;2.72;;;-4.10;99.90;;;;;;5039837;28;20055;-77
2022/01/27 05:17:04;;;;;;;3.78;2.10;;;-4.10;99.90;;;;;;5033383;28;20049;-76
2022/01/27 05:19:33;;;;;;;6.20;2.15;;;-4.10;99.90;;;;;;5050974;28;20517;-77
2022/01/27 05:22:00;;;;;;;5.88;2.25;;;-4.10;99.90;;;;;;5050400;28;20080;-77
2022/01/27 05:24:28;;;;;;;5.57;2.40;;;-4.10;99.90;;;;;;5039752;28;20049;-76
2022/01/27 05:26:55;;;;;;;4.55;2.50;;;-4.10;99.90;;;;;;5025526;28;20056;-77
2022/01/27 05:29:22;;;;;;;6.45;2.45;;;-4.20;99.90;;;;;;5028354;28;20082;-76
2022/01/27 05:31:50;;;;;;;1.65;1.52;;;-4.10;99.90;;;;;;5028199;28;20520;-79
2022/01/27 05:34:18;;;;;;;6.03;2.45;;;-4.20;99.90;;;;;;5025295;28;20049;-79
2022/01/27 05:36:46;;;;;;;5.97;2.58;;;-4.20;99.90;;;;;;5027218;28;20072;-79
2022/01/27 05:39:14;;;;;;;5.43;2.80;;;-4.20;99.90;;;;;;5030105;28;20049;-79
2022/01/27 05:41:42;;;;;;;5.45;2.60;;;-4.10;99.90;;;;;;5015022;28;20072;-79
2022/01/27 05:44:09;;;;;;;5.68;3.03;;;-4.10;99.90;;;;;;5031401;28;20446;-81
2022/01/27 05:46:37;;;;;;;3.63;2.47;;;-4.10;99.90;;;;;;5029264;28;20512;-81
2022/01/27 05:49:05;;;;;;;6.63;3.03;;;-4.10;99.90;;;;;;5047330;28;20144;-83
2022/01/27 05:51:34;;;;;;;5.30;2.90;;;-4.10;99.90;;;;;;5041567;28;20059;-83
2022/01/27 05:54:03;;;;;;;4.68;2.78;;;-4.10;99.90;;;;;;5028679;28;20054;-81
2022/01/27 05:56:30;;;;;;;5.28;3.28;;;-4.10;99.90;;;;;;5031065;28;20053;-81
2022/01/27 05:58:58;;;;;;;6.47;2.63;;;-4.10;99.90;;;;;;5032742;28;20060;-80
2022/01/27 06:01:25;;;;;;;4.68;3.30;;;-4.00;99.90;;;;;;5036979;28;20045;-80
2022/01/27 06:03:54;;;;;;;7.28;3.17;;;-4.00;99.90;;;;;;5030648;28;20502;-81
2022/01/27 06:06:24;;;;;;;9.65;2.92;;;-4.00;99.90;;;;;;5032565;28;20056;-81
2022/01/27 06:08:51;;;;;;;4.88;3.10;;;-4.00;99.90;;;;;;5032786;28;20406;-78
2022/01/27 06:11:20;;;;;;;11.57;2.97;;;-4.00;99.90;;;;;;5028814;28;20523;-78
2022/01/27 06:13:48;;;;;;;4.97;2.58;;;-4.00;99.90;;;;;;5029142;28;20049;-78
2022/01/27 06:16:15;;;;;;;5.63;2.78;;;-4.00;99.90;;;;;;5036010;28;20045;-77
2022/01/27 06:18:43;;;;;;;6.15;2.85;;;-4.00;99.90;;;;;;5036782;28;20140;-78
2022/01/27 06:21:13;;;;;;;3.90;2.50;;;-4.00;99.90;;;;;;5045503;28;20055;-78
2022/01/27 06:23:40;;;;;;;4.47;2.65;;;-4.00;99.90;;;;;;5032183;28;20052;-78
2022/01/27 06:26:08;;;;;;;6.25;2.90;;;-4.00;99.90;;;;;;5037542;28;20481;-80
2022/01/27 06:28:37;;;;;;;4.45;3.13;;;-4.00;99.90;;;;;;5036151;28;20053;-80
2022/01/27 06:31:04;;;;;;;14.02;2.95;;;-3.90;99.90;;;;;;5039458;28;20051;-80
2022/01/27 06:33:32;;;;;;;5.15;2.70;;;-3.90;99.90;;;;;;5040971;28;20437;-80
2022/01/27 06:35:59;;;;;;;5.35;2.80;;;-4.00;99.90;;;;;;5037250;28;20049;-81
2022/01/27 06:38:27;;;;;;;7.88;3.35;;;-3.90;99.90;;;;;;5039385;28;20052;-80
2022/01/27 06:40:54;;;;;;;6.82;3.45;;;-3.90;99.90;;;;;;5041247;28;20410;-81
2022/01/27 06:43:22;;;;;;;6.90;2.67;;;-3.90;99.90;;;;;;5038485;28;20037;-78
2022/01/27 06:45:51;;;;;;;11.00;3.78;;;-3.90;99.90;;;;;;5038227;28;20041;-79
2022/01/27 06:48:18;;;;;;;8.95;3.03;;;-3.90;99.90;;;;;;5044946;28;20079;-78
2022/01/27 06:50:51;;;;;;;4.15;2.67;;;-3.90;99.90;;;;;;5047700;28;20148;-78
2022/01/27 06:53:18;;;;;;;;;;;-3.80;99.90;;;;;;5049333;28;20057;-80
2022/01/27 06:55:45;;;;;;;6.95;2.55;;;-3.80;99.90;;;;;;5043766;28;21258;-80
2022/01/27 06:58:13;;;;;;;4.63;2.45;;;-3.80;99.90;;;;;;5046387;28;20049;-82
2022/01/27 07:00:41;;;;;;;4.40;2.38;;;-3.80;99.90;;;;;;5039001;28;20064;-80
2022/01/27 07:03:10;;;;;;;4.85;1.83;;;-3.70;99.90;;;;;;5040363;28;20381;-81
2022/01/27 07:05:39;;;;;;;7.97;3.28;;;-3.70;99.90;;;;;;5046833;28;20045;-81
2022/01/27 07:08:06;;;;;;;8.13;2.95;;;-3.70;99.90;;;;;;5048471;28;20052;-81
2022/01/27 07:10:34;;;;;;;7.35;2.92;;;-3.70;99.90;;;;;;5050474;28;20041;-81
2022/01/27 07:13:01;;;;;;;8.15;2.53;;;-3.70;99.90;;;;;;5050467;28;20049;-81
2022/01/27 07:15:30;;;;;;;5.47;3.78;;;-3.70;99.90;;;;;;5041276;28;20037;-81
2022/01/27 07:17:57;;;;;;;3.30;2.35;;;-3.70;99.90;;;;;;5042910;28;20053;-80
2022/01/27 07:20:26;;;;;;;4.45;2.22;;;-3.60;99.90;;;;;;5030008;28;20049;-82
2022/01/27 07:22:55;;;;;;;5.13;2.08;;;-3.60;99.90;;;;;;5046626;28;20056;-81
2022/01/27 07:25:22;;;;;;;5.63;2.50;;;-3.60;99.90;;;;;;5042996;28;20046;-81
2022/01/27 07:27:50;;;;;;;8.13;2.65;;;-3.50;99.90;;;;;;5036195;28;20049;-80
2022/01/27 07:30:17;;;;;;;4.32;3.10;;;-3.50;99.90;;;;;;5048243;28;20118;-81
2022/01/27 07:32:44;;;;;;;3.38;2.60;;;-3.50;99.90;;;;;;5047801;28;20555;-80
2022/01/27 07:35:12;;;;;;;4.78;2.72;;;-3.50;99.90;;;;;;5047826;28;20051;-81
2022/01/27 07:37:42;;;;;;;7.90;3.22;;;-3.50;99.90;;;;;;5047149;28;20053;-81
2022/01/27 07:40:11;;;;;;;8.40;3.42;;;-3.40;99.90;;;;;;5026057;28;20441;-79
2022/01/27 07:42:39;;;;;;;8.13;3.20;;;-3.30;99.90;;;;;;5043255;28;20132;-80
2022/01/27 07:45:08;;;;;;;5.18;3.22;;;-3.30;99.90;;;;;;5043995;28;20087;-79
2022/01/27 07:47:36;;;;;;;5.20;2.65;;;-3.30;99.90;;;;;;5030995;28;20062;-80
2022/01/27 07:50:04;;;;;;;4.53;2.90;;;-3.10;99.90;;;;;;5047462;28;20103;-79
2022/01/27 07:52:31;;;;;;;5.90;3.47;;;-3.00;99.90;;;;;;5045531;28;20481;-79
2022/01/27 07:55:00;;;;;;;4.38;2.63;;;-3.00;99.90;;;;;;5036424;28;20569;-79
2022/01/27 07:57:28;;;;;;;5.47;2.80;;;-2.90;99.90;;;;;;5048840;28;20075;-80
2022/01/27 07:59:55;;;;;;;6.70;2.85;;;-2.90;99.90;;;;;;5042449;28;20533;-79
2022/01/27 08:02:23;;;;;;;6.97;2.78;;;-2.90;99.90;;;;;;5039178;28;20053;-79
2022/01/27 08:04:56;;;;;;;8.93;3.20;;;-2.90;99.90;;;;;;5042088;28;20132;-78
2022/01/27 08:07:23;;;;;;;8.65;3.17;;;-2.90;99.90;;;;;;5052703;28;20503;-77
2022/01/27 08:09:51;;;;;;;5.45;3.03;;;-3.00;99.90;;;;;;5051774;28;20095;-78
2022/01/27 08:12:20;;;;;;;9.00;3.85;;;-3.10;99.90;;;;;;5051138;28;20099;-78
2022/01/27 08:14:47;;;;;;;5.03;3.05;;;-3.20;99.90;;;;;;5051432;28;20088;-76
2022/01/27 08:17:17;;;;;;;7.32;3.00;;;-3.20;99.90;;;;;;5036141;28;20045;-77
2022/01/27 08:19:44;;;;;;;5.63;2.95;;;-3.10;99.90;;;;;;5038877;28;20156;-82
2022/01/27 08:22:12;;;;;;;8.00;3.53;;;-3.10;99.90;;;;;;5031426;28;20505;-80
2022/01/27 08:24:40;;;;;;;5.40;2.80;;;-3.10;99.90;;;;;;5033035;28;20483;-81
2022/01/27 08:27:09;;;;;;;5.55;2.88;;;-3.00;99.90;;;;;;5050083;28;20052;-80
2022/01/27 08:29:42;;;;;;;7.22;3.55;;;-3.10;99.90;;;;;;5044760;28;20053;-81
2022/01/27 08:32:16;;;;;;;8.10;3.47;;;-3.00;99.90;;;;;;5032347;28;20049;-78
2022/01/27 08:34:44;;;;;;;5.95;3.00;;;-3.00;99.90;;;;;;5037132;28;20053;-80
2022/01/27 08:37:15;;;;;;;5.45;3.38;;;-3.00;99.90;;;;;;5035711;28;20053;-81
2022/01/27 08:39:42;;;;;;;5.63;3.85;;;-2.90;99.90;;;;;;5049841;28;20405;-81
2022/01/27 08:42:10;;;;;;;9.80;3.38;;;-2.90;99.90;;;;;;5046424;28;20045;-81
2022/01/27 08:44:41;;;;;;;6.13;3.90;;;-2.90;99.90;;;;;;5034746;28;20050;-82
2022/01/27 08:47:11;;;;;;;10.85;3.72;;;-2.90;99.90;;;;;;5050681;28;20045;-79
2022/01/27 08:49:38;;;;;;;8.75;3.75;;;-2.80;99.90;;;;;;5049990;28;20041;-80
2022/01/27 08:52:06;;;;;;;6.13;3.28;;;-2.80;99.90;;;;;;5051855;28;20537;-78
2022/01/27 08:54:34;;;;;;;9.95;3.17;;;-2.70;99.90;;;;;;5057223;28;20492;-76
2022/01/27 08:57:01;;;;;;;7.78;3.35;;;-2.70;99.90;;;;;;5031899;28;20107;-77
2022/01/27 08:59:29;;;;;;;5.00;3.10;;;-2.60;99.90;;;;;;5047608;28;20052;-77
2022/01/27 09:01:57;;;;;;;4.32;3.75;;;-2.60;99.90;;;;;;5039769;28;20037;-78
2022/01/27 09:04:25;;;;;;;6.90;3.45;;;-2.60;99.90;;;;;;5051484;28;20060;-78
2022/01/27 09:06:52;;;;;;;9.30;3.70;;;-2.60;99.90;;;;;;5043066;28;20506;-78
2022/01/27 09:09:19;;;;;;;5.28;4.15;;;-2.60;99.90;;;;;;5048549;28;20053;-78
2022/01/27 09:11:47;;;;;;;7.97;3.70;;;-2.60;99.90;;;;;;5052752;28;20049;-78
2022/01/27 09:14:15;;;;;;;5.05;3.13;;;-2.60;99.90;;;;;;5052794;28;20065;-77
2022/01/27 09:16:43;;;;;;;9.27;3.85;;;-2.60;99.90;;;;;;5041700;28;20064;-79
2022/01/27 09:19:11;;;;;;;10.75;4.25;;;-2.50;99.90;;;;;;5049616;28;20502;-77
2022/01/27 09:21:44;;;;;;;7.13;4.10;;;-2.40;99.90;;;;;;5034220;28;20052;-77
2022/01/27 09:24:15;;;;;;;6.53;3.97;;;-2.40;99.90;;;;;;5030152;28;20503;-76
2022/01/27 09:26:51;;;;;;;8.70;4.85;;;-2.30;99.90;;;;;;5052685;28;20053;-77
2022/01/27 09:29:21;;;;;;;12.35;4.00;;;-2.30;99.90;;;;;;5030304;28;20457;-77
2022/01/27 09:31:49;;;;;;;4.53;2.97;;;-2.30;99.90;;;;;;5031859;28;20517;-77
2022/01/27 09:34:19;;;;;;;4.72;3.60;;;-2.20;99.90;;;;;;5033872;28;20059;-77
2022/01/27 09:36:49;;;;;;;6.57;2.72;;;-2.10;99.90;;;;;;5045552;28;20049;-78
2022/01/27 09:39:19;;;;;;;7.65;3.70;;;-2.00;99.90;;;;;;5049924;28;20060;-77
2022/01/27 09:41:47;;;;;;;9.88;4.35;;;-2.00;99.90;;;;;;5033749;28;20602;-79
2022/01/27 09:44:14;;;;;;;7.70;4.53;;;-2.00;99.90;;;;;;5041462;28;20134;-79
2022/01/27 09:46:46;;;;;;;9.32;4.00;;;-2.00;99.90;;;;;;5050034;28;20430;-78
2022/01/27 09:49:17;;;;;;;8.68;4.07;;;-2.00;99.90;;;;;;5051847;28;20053;-78
2022/01/27 09:51:47;;;;;;;6.45;3.30;;;-1.90;99.90;;;;;;5031261;28;20045;-80
2022/01/27 09:54:17;;;;;;;7.57;3.35;;;-1.80;99.90;;;;;;5044537;28;20060;-79
2022/01/27 09:56:45;;;;;;;8.55;4.18;;;-1.90;99.90;;;;;;5048201;28;20528;-81
2022/01/27 09:59:12;;;;;;;6.20;3.63;;;-1.90;99.90;;;;;;5051546;28;20114;-81
2022/01/27 10:01:59;;;;;;;5.72;3.67;;;-1.90;99.90;;;;;;5047714;28;20052;-82
2022/01/27 10:04:47;;;;;;;5.95;3.33;;;-1.90;99.90;;;;;;5046573;28;20053;-80
2022/01/27 10:07:18;;;;;;;5.15;3.38;;;-1.90;99.90;;;;;;5050630;28;20562;-78
2022/01/27 10:10:02;;;;;;;7.40;3.97;;;-2.00;99.90;;;;;;5051532;28;20414;-79
2022/01/27 10:12:35;;;;;;;8.20;4.00;;;-2.00;99.90;;;;;;5026702;28;20050;-80
2022/01/27 10:15:07;;;;;;;9.00;4.22;;;-1.90;99.90;;;;;;5045696;28;20049;-79
2022/01/27 10:17:38;;;;;;;6.47;3.85;;;-1.90;99.90;;;;;;5051449;28;20131;-79
2022/01/27 10:20:16;;;;;;;8.73;4.53;;;-1.90;99.90;;;;;;5047888;28;20140;-78
2022/01/27 10:23:16;;;;;;;10.70;4.65;;;-2.00;99.90;;;;;;5047441;28;20053;-81
2022/01/27 10:25:49;;;;;;;7.43;4.18;;;-2.00;99.90;;;;;;5049914;28;20045;-79
2022/01/27 10:28:34;;;;;;;10.48;4.65;;;-2.00;99.90;;;;;;5032952;28;20108;-79
2022/01/27 10:31:07;;;;;;;5.45;3.65;;;-2.00;99.90;;;;;;5038610;28;20049;-78
2022/01/27 10:33:44;;;;;;;8.65;4.47;;;-2.00;99.90;;;;;;5034575;28;20143;-78
2022/01/27 10:36:22;;;;;;;8.27;4.15;;;-2.00;99.90;;;;;;5039523;28;20529;-78
2022/01/27 10:39:00;;;;;;;8.00;4.28;;;-2.10;99.90;;;;;;5040369;28;20494;-77
2022/01/27 10:41:33;;;;;;;8.88;4.55;;;-2.00;99.90;;;;;;5037023;28;20049;-79
2022/01/27 10:44:11;;;;;;;10.93;4.25;;;-1.90;99.90;;;;;;5037636;28;20139;-80
2022/01/27 10:46:42;;;;;;;10.05;4.07;;;-1.80;99.90;;;;;;5037898;28;20148;-82
2022/01/27 10:49:16;;;;;;;8.88;3.83;;;-1.80;99.90;;;;;;5031180;28;20052;-79
2022/01/27 10:51:47;;;;;;;8.45;4.13;;;-1.70;99.90;;;;;;5035525;28;20034;-80
2022/01/27 10:54:22;;;;;;;6.20;4.10;;;-1.70;99.90;;;;;;5037644;28;20056;-84
2022/01/27 10:56:50;;;;;;;6.05;3.50;;;-1.70;99.90;;;;;;5035236;28;20060;-79
2022/01/27 10:59:20;;;;;;;7.28;3.22;;;-1.60;99.90;;;;;;5033865;28;20130;-81
2022/01/27 11:01:50;;;;;;;6.25;3.65;;;-1.60;99.90;;;;;;5032437;28;20096;-81
2022/01/27 11:04:21;;;;;;;7.85;4.18;;;-1.50;99.90;;;;;;5051194;28;20056;-80
2022/01/27 11:06:58;;;;;;;6.30;3.67;;;-1.60;99.90;;;;;;5045548;28;20052;-80
2022/01/27 11:09:29;;;;;;;12.52;5.03;;;-1.60;99.90;;;;;;5027987;28;20049;-80
2022/01/27 11:11:57;;;;;;;6.50;4.30;;;-1.60;99.90;;;;;;5040681;28;20052;-81
2022/01/27 11:14:25;;;;;;;7.45;4.55;;;-1.60;99.90;;;;;;5038217;28;20379;-80
2022/01/27 11:16:56;;;;;;;12.05;4.93;;;-1.60;99.90;;;;;;5037693;28;20048;-80
2022/01/27 11:19:42;;;;;;;8.20;4.97;;;-1.60;99.90;;;;;;5044216;28;20144;-78
2022/01/27 11:22:27;;;;;;;8.05;3.42;;;-1.50;99.90;;;;;;5046844;28;20061;-79
2022/01/27 11:25:49;;;;;;;7.05;4.20;;;-1.40;99.90;;;;;;5029300;28;20041;-81
2022/01/27 11:27:58;;;;;;;10.82;5.55;;;-1.40;99.90;;;;;;5041093;28;20141;-80
2022/01/27 11:30:34;;;;;;;7.90;4.13;;;-1.40;99.90;;;;;;5041463;28;20409;-79
2022/01/27 11:33:05;;;;;;;7.60;4.50;;;-1.30;99.90;;;;;;5036843;28;20118;-80
2022/01/27 11:35:33;;;;;;;8.35;5.07;;;-1.30;99.90;;;;;;5040984;28;20126;-79
2022/01/27 11:38:04;;;;;;;7.88;4.22;;;-1.20;99.90;;;;;;5038660;28;20059;-80
2022/01/27 11:40:39;;;;;;;9.68;4.45;;;-1.20;99.90;;;;;;5034941;28;20443;-80
2022/01/27 11:43:12;;;;;;;7.22;4.68;;;-1.30;99.90;;;;;;5040484;28;20520;-80
2022/01/27 11:45:42;;;;;;;7.50;5.10;;;-1.40;99.90;;;;;;5037218;28;20509;-80
2022/01/27 11:48:17;;;;;;;9.32;5.40;;;-1.30;99.90;;;;;;5038517;28;20151;-81
2022/01/27 11:50:52;;;;;;;9.73;5.53;;;-1.30;99.90;;;;;;5032958;28;20511;-81
2022/01/27 11:53:39;;;;;;;9.10;5.53;;;-1.20;99.90;;;;;;5041612;28;20076;-81
2022/01/27 11:56:15;;;;;;;9.48;5.18;;;-1.20;99.90;;;;;;5037901;28;20048;-83
2022/01/27 11:58:47;;;;;;;10.80;5.75;;;-1.30;99.90;;;;;;5047027;28;20617;-81
2022/01/27 12:01:22;;;;;;;8.93;5.38;;;-1.30;99.90;;;;;;5051034;28;20136;-81
2022/01/27 12:04:16;;;;;;;8.30;4.82;;;-1.40;99.90;;;;;;5041247;28;20049;-83
2022/01/27 12:07:07;;;;;;;9.20;4.90;;;-1.50;99.90;;;;;;5036789;28;20065;-81
2022/01/27 12:09:40;;;;;;;12.38;6.97;;;-1.50;99.90;;;;;;5041152;28;20083;-80
2022/01/27 12:12:25;;;;;;;10.88;5.45;;;-1.60;99.90;;;;;;5040275;28;20048;-79
2022/01/27 12:15:10;;;;;;;7.47;5.22;;;-1.60;99.90;;;;;;5026989;28;20049;-79
2022/01/27 12:17:39;;;;;;;13.38;5.30;;;-1.70;99.90;;;;;;5034827;28;20081;-79
2022/01/27 12:20:12;;;;;;;9.73;5.30;;;-1.70;99.90;;;;;;5040968;28;20060;-77
2022/01/27 12:23:04;;;;;;;7.35;4.82;;;-1.90;99.90;;;;;;5042296;28;20056;-80
2022/01/27 12:25:48;;;;;;;8.38;5.45;;;-1.80;99.90;;;;;;5039720;28;20057;-78
2022/01/27 12:28:17;;;;;;;9.05;5.35;;;-1.90;99.90;;;;;;5029174;28;20045;-80
2022/01/27 12:31:01;;;;;;;10.15;5.28;;;-1.80;99.90;;;;;;5038781;28;20068;-79
2022/01/27 12:33:28;;;;;;;11.70;6.07;;;-1.80;99.90;;;;;;5047110;28;20053;-78
2022/01/27 12:35:57;;;;;;;13.48;7.15;;;-1.80;99.90;;;;;;5044033;28;20038;-78
2022/01/27 12:38:25;;;;;;;12.25;6.55;;;-1.80;99.90;;;;;;5034336;28;20061;-76
2022/01/27 12:40:57;;;;;;;12.82;7.85;;;-1.80;99.90;;;;;;5033747;28;20449;-76
2022/01/27 12:43:27;;;;;;;13.00;9.27;;;-1.80;99.90;;;;;;5048382;28;20053;-77
2022/01/27 12:46:01;;;;;;;18.23;9.00;;;-1.70;99.90;;;;;;5051192;28;20135;-80
2022/01/27 12:48:29;;;;;;;15.15;7.13;;;-1.70;99.90;;;;;;5034561;28;20069;-80
2022/01/27 12:51:02;;;;;;;11.35;6.72;;;-1.70;99.90;;;;;;5038344;28;20053;-80
2022/01/27 12:53:31;;;;;;;17.48;7.20;;;-1.70;99.90;;;;;;5031774;28;20421;-79
2022/01/27 12:56:00;;;;;;;9.02;5.75;;;-1.70;99.90;;;;;;5031160;28;20612;-82
2022/01/27 12:58:32;;;;;;;8.18;5.63;;;-1.70;99.90;;;;;;5040409;28;20056;-82
2022/01/27 13:01:01;;;;;;;15.18;6.70;;;-1.70;99.90;;;;;;5049124;28;20053;-75
2022/01/27 13:03:32;;;;;;;15.73;6.20;;;-1.80;99.90;;;;;;5049844;28;20056;-78
2022/01/27 13:06:03;;;;;;;14.63;5.80;;;-1.70;99.90;;;;;;5038024;28;20136;-79
2022/01/27 13:08:32;;;;;;;15.45;5.47;;;-1.70;99.90;;;;;;5040404;28;20060;-76
2022/01/27 13:11:09;;;;;;;10.98;5.25;;;-1.70;99.90;;;;;;5050629;28;20044;-77
2022/01/27 13:13:41;;;;;;;12.07;5.63;;;-1.80;99.90;;;;;;5049294;28;20103;-76
2022/01/27 13:16:15;;;;;;;10.00;5.47;;;-1.80;99.90;;;;;;5036072;28;20049;-76
2022/01/27 13:19:00;;;;;;;13.18;5.35;;;-1.80;99.90;;;;;;5011733;28;20045;-76
2022/01/27 13:21:31;;;;;;;11.30;5.53;;;-1.80;99.90;;;;;;5028761;28;20064;-76
2022/01/27 13:24:06;;;;;;;12.07;4.80;;;-1.80;99.90;;;;;;5042168;28;20476;-77
2022/01/27 13:26:34;;;;;;;9.07;4.97;;;-1.80;99.90;;;;;;5035177;28;20084;-77